Portada
METAR-TAF:

METAR-TAF

Aeropuertos :

Aeropuerto Internacional de Kuwait

Ciudad de Kuwait, Kuwait

latitud: 29-13N, longitud: 047-59E, altitud: 55 m

Observación

El informe se hizo hace 22 minutos, a las 04:00 UTC
Viento 3 kt del este
Temperatura 22°C
Humedad 94%
Presión 1017 hPa
Visibilidad: 6000 m
Nubes dispersas a una altura de 4000 ft
Cielo nuboso a una altura de 8000 ft

METAR: OKBK 220400Z 08003KT 6000 SCT040 BKN080 22/21 Q1017 RETSSHRA NOSIG

Hora: 07:22 (04:22 UTC)

Pronóstico

El informe se hizo hace 5 horas y 37 minutos, a las 22:45 UTC
Pronóstico válido del 22 a las 00 UTC al 23 a las 06 UTC
Viento 12 kt del sur con ráfagas de 22 kt
Visibilidad: 8000 m
Nubes dispersas a una altura de 4000 ft
Cielo nuboso a una altura de 8000 ft
Temporalmente
del 22 a las 00 UTC al 22 a las 12 UTC
Visibilidad: 2500 m
Escasas nubes a una altura de 2500 ft, Cumulonimbus.

TAF: OKBK 212245Z 2200/2306 17012G22KT 8000 SCT040 BKN080 TEMPO 2200/2212 2500 -TSRA/BLDU FEW025CB

Observaciones y pronósticos meteorológicos de más de 4000 aeropuertos (mensajes METAR y TAF).

Los puntos amarillos y rojos representan las estaciones disponibles.

Ponga el ratón en el punto deseado para ver el nombre de la estación.

Haga clic para ver las observaciones y los pronósticos meteorológicos.

Para cambiar el mapa : haga clic en los botones verdes con una cruz de color negro para hacer un zoom, en el botón verde con un guión para alejar o en las flechas verdes para mapas adyacentes.


METAR-TAF: